Time;durP1;ratioP1;P1;durP2;ratioP2;P2;SDS_P1;SDS_P2;PMS_P1;PMS_P2;Temp;Humidity;BMP_temperature;BMP_pressure;BME280_temperature;BME280_humidity;BME280_pressure;Samples;Min_cycle;Max_cycle;Signal;HPM_P1;HPM_P2
2023/11/14 00:02:27;;;;;;;12.60;3.53;;;25.20;61.70;;;;;;4935694;29;20662;-73
2023/11/14 00:04:54;;;;;;;18.73;3.40;;;25.10;61.20;;;;;;4935435;29;20660;-73
2023/11/14 00:07:21;;;;;;;20.00;3.23;;;25.10;61.70;;;;;;4935752;29;20580;-73
2023/11/14 00:09:49;;;;;;;15.80;3.13;;;25.30;61.70;;;;;;4935085;29;20184;-74
2023/11/14 00:12:19;;;;;;;12.93;2.83;;;25.30;61.10;;;;;;4935906;29;20184;-73
2023/11/14 00:14:47;;;;;;;18.73;3.50;;;25.00;61.50;;;;;;4927676;29;20666;-75
2023/11/14 00:17:15;;;;;;;10.40;2.77;;;25.30;60.80;;;;;;4935591;29;20287;-74
2023/11/14 00:19:43;;;;;;;14.53;3.80;;;25.40;60.20;;;;;;4935162;29;20235;-77
2023/11/14 00:22:14;;;;;;;12.53;3.30;;;25.30;60.40;;;;;;4917174;29;20244;-75
2023/11/14 00:24:41;;;;;;;24.33;5.80;;;25.30;60.10;;;;;;4934057;29;20180;-79
2023/11/14 00:27:09;;;;;;;11.50;3.60;;;25.30;60.20;;;;;;4935586;29;20191;-77
2023/11/14 00:29:36;;;;;;;20.47;3.57;;;25.40;60.70;;;;;;4931861;29;20199;-78
2023/11/14 00:32:04;;;;;;;14.43;3.30;;;25.40;60.10;;;;;;4936149;29;20226;-74
2023/11/14 00:34:31;;;;;;;17.10;3.50;;;25.50;60.70;;;;;;4934296;29;20168;-75
2023/11/14 00:36:59;;;;;;;22.57;3.93;;;25.60;59.50;;;;;;4935386;29;20180;-76
2023/11/14 00:39:27;;;;;;;16.57;3.60;;;25.50;59.90;;;;;;4935753;29;20749;-78
2023/11/14 00:41:54;;;;;;;14.60;3.43;;;25.30;61.10;;;;;;4939047;29;20183;-78
2023/11/14 00:44:23;;;;;;;11.70;3.10;;;25.50;60.40;;;;;;4939250;29;20219;-75
2023/11/14 00:46:50;;;;;;;16.33;3.37;;;25.60;59.30;;;;;;4939150;29;20548;-74
2023/11/14 00:49:17;;;;;;;16.37;3.40;;;25.50;60.50;;;;;;4932614;29;20186;-75
2023/11/14 00:51:45;;;;;;;16.83;3.80;;;25.80;60.10;;;;;;4937037;29;20267;-72
2023/11/14 00:54:12;;;;;;;20.87;3.60;;;26.10;60.10;;;;;;4938760;29;20196;-75
2023/11/14 00:56:39;;;;;;;13.23;3.17;;;26.20;59.60;;;;;;4938815;29;20184;-79
2023/11/14 00:59:08;;;;;;;17.03;3.57;;;26.20;59.30;;;;;;4938896;29;20210;-76
2023/11/14 01:01:36;;;;;;;13.63;3.50;;;25.80;60.00;;;;;;4938640;29;20192;-77
2023/11/14 01:04:03;;;;;;;17.57;4.10;;;26.10;59.10;;;;;;4938959;29;20700;-79
2023/11/14 01:06:30;;;;;;;20.43;3.67;;;26.20;59.20;;;;;;4934826;29;20193;-77
2023/11/14 01:09:00;;;;;;;13.97;2.90;;;26.20;58.80;;;;;;4938618;29;20187;-75
2023/11/14 01:11:27;;;;;;;16.60;3.87;;;26.40;58.90;;;;;;4938678;29;20184;-80
2023/11/14 01:13:55;;;;;;;13.07;3.80;;;26.30;58.80;;;;;;4938285;29;20188;-76
2023/11/14 01:16:22;;;;;;;15.90;2.87;;;26.00;60.00;;;;;;4938561;29;20191;-78
2023/11/14 01:18:49;;;;;;;18.07;3.17;;;26.00;59.40;;;;;;4937005;29;21906;-76
2023/11/14 01:21:17;;;;;;;12.87;3.10;;;26.00;59.40;;;;;;4937254;29;20702;-76
2023/11/14 01:23:45;;;;;;;12.60;3.67;;;26.00;59.80;;;;;;4938212;29;20559;-75
2023/11/14 01:26:12;;;;;;;13.17;3.37;;;26.30;58.20;;;;;;4929585;29;20191;-74
2023/11/14 01:28:41;;;;;;;13.10;3.77;;;26.50;58.40;;;;;;4936747;29;20188;-74
2023/11/14 01:31:20;;;;;;;15.40;3.80;;;26.40;58.30;;;;;;4936375;29;20223;-74
2023/11/14 01:33:50;;;;;;;15.37;3.37;;;26.20;58.90;;;;;;4933437;29;20355;-75
2023/11/14 01:36:21;;;;;;;11.20;3.20;;;26.00;60.00;;;;;;4935037;29;20238;-75
2023/11/14 01:38:48;;;;;;;11.93;3.00;;;26.20;59.00;;;;;;4937389;29;20180;-76
2023/11/14 01:41:15;;;;;;;17.40;3.63;;;26.20;58.70;;;;;;4932308;29;20192;-74
2023/11/14 01:43:43;;;;;;;14.87;3.63;;;26.20;58.50;;;;;;4937456;29;20690;-81
2023/11/14 01:46:18;;;;;;;15.27;3.30;;;26.00;59.00;;;;;;4938211;29;20172;-74
2023/11/14 01:48:49;;;;;;;13.60;3.30;;;26.30;58.80;;;;;;4937234;29;20180;-75
2023/11/14 01:51:18;;;;;;;14.00;3.63;;;26.60;57.50;;;;;;4937392;29;20180;-79
2023/11/14 01:53:48;;;;;;;19.10;3.87;;;26.90;57.20;;;;;;4921318;29;20660;-78
2023/11/14 01:56:16;;;;;;;12.73;3.63;;;27.00;56.50;;;;;;4936666;29;20650;-75
2023/11/14 01:58:44;;;;;;;13.87;3.50;;;27.20;56.50;;;;;;4935549;29;21929;-76
2023/11/14 02:01:13;;;;;;;20.23;3.47;;;27.00;56.00;;;;;;4936788;29;20660;-74
2023/11/14 02:03:41;;;;;;;14.20;3.37;;;26.90;56.90;;;;;;4935976;29;20263;-77
2023/11/14 02:06:09;;;;;;;10.10;2.90;;;26.90;55.70;;;;;;4936972;29;20694;-77
2023/11/14 02:08:38;;;;;;;13.83;3.47;;;26.80;56.70;;;;;;4936881;29;20192;-75
2023/11/14 02:11:06;;;;;;;11.83;2.93;;;27.10;55.80;;;;;;4937219;29;20191;-80
2023/11/14 02:13:34;;;;;;;15.27;3.30;;;27.20;55.70;;;;;;4936607;29;20206;-80
2023/11/14 02:16:02;;;;;;;17.37;3.60;;;26.90;56.00;;;;;;4935839;29;20213;-76
2023/11/14 02:18:29;;;;;;;19.17;3.80;;;27.00;56.10;;;;;;4937270;29;20271;-74
2023/11/14 02:20:56;;;;;;;14.53;2.93;;;27.20;56.20;;;;;;4937014;29;20228;-77
2023/11/14 02:23:26;;;;;;;14.70;3.83;;;27.40;55.20;;;;;;4931464;29;20596;-75
2023/11/14 02:25:54;;;;;;;12.13;3.30;;;27.50;55.50;;;;;;4929616;29;20192;-74
2023/11/14 02:28:48;;;;;;;13.80;3.60;;;27.30;55.60;;;;;;4934850;29;20176;-79
2023/11/14 02:31:17;;;;;;;15.93;3.37;;;27.10;56.30;;;;;;4936217;29;20172;-72
2023/11/14 02:33:51;;;;;;;14.03;3.43;;;27.40;56.40;;;;;;4933389;29;20212;-77
2023/11/14 02:36:19;;;;;;;12.77;3.13;;;27.30;55.90;;;;;;4920618;29;20290;-77
2023/11/14 02:38:46;;;;;;;12.37;3.40;;;27.50;55.30;;;;;;4937504;29;20194;-78
2023/11/14 02:41:15;;;;;;;11.60;3.47;;;27.30;54.40;;;;;;4936582;29;20549;-76
2023/11/14 02:43:42;;;;;;;14.60;3.53;;;27.40;55.20;;;;;;4946139;29;20547;-79
2023/11/14 02:46:10;;;;;;;16.23;4.13;;;27.60;55.40;;;;;;4923851;29;20188;-78
2023/11/14 02:48:37;;;;;;;13.53;3.23;;;27.90;54.70;;;;;;4931778;29;20248;-74
2023/11/14 02:51:05;;;;;;;9.47;2.70;;;27.80;55.00;;;;;;4933444;29;20180;-75
2023/11/14 02:53:32;;;;;;;14.53;3.43;;;28.20;54.00;;;;;;4936351;29;20191;-74
2023/11/14 02:56:00;;;;;;;12.00;3.50;;;27.90;54.20;;;;;;4936610;29;20631;-75
2023/11/14 02:58:28;;;;;;;14.13;3.13;;;27.70;55.20;;;;;;4935778;29;20726;-75
2023/11/14 03:00:55;;;;;;;18.07;3.30;;;27.70;55.00;;;;;;4934399;29;20271;-78
2023/11/14 03:03:23;;;;;;;13.90;3.00;;;27.60;54.70;;;;;;4933244;29;20184;-83
2023/11/14 03:05:50;;;;;;;17.00;3.53;;;27.60;54.10;;;;;;4932824;29;20222;-75
2023/11/14 03:08:17;;;;;;;12.17;2.73;;;28.00;53.60;;;;;;4936406;29;20180;-77
2023/11/14 03:10:45;;;;;;;13.00;3.17;;;27.80;53.20;;;;;;4936433;29;20179;-76
2023/11/14 03:13:12;;;;;;;15.97;3.47;;;27.70;53.50;;;;;;4936243;29;20544;-75
2023/11/14 03:15:41;;;;;;;12.30;3.20;;;27.70;53.90;;;;;;4934650;29;20188;-74
2023/11/14 03:18:08;;;;;;;13.20;2.97;;;27.40;54.90;;;;;;4936295;29;20184;-73
2023/11/14 03:20:35;;;;;;;10.97;3.07;;;27.80;54.10;;;;;;4936219;29;20732;-72
2023/11/14 03:23:03;;;;;;;12.70;3.20;;;27.60;55.10;;;;;;4936506;29;20258;-76
2023/11/14 03:25:31;;;;;;;12.97;3.40;;;27.80;54.60;;;;;;4925411;29;20208;-75
2023/11/14 03:28:01;;;;;;;17.23;3.40;;;27.90;54.30;;;;;;4926346;29;20199;-76
2023/11/14 03:30:28;;;;;;;19.87;3.67;;;28.00;53.80;;;;;;4919327;29;20822;-75
2023/11/14 03:32:55;;;;;;;13.83;3.63;;;27.90;54.20;;;;;;4935696;29;20187;-78
2023/11/14 03:35:23;;;;;;;17.13;3.67;;;27.40;56.10;;;;;;4931351;29;20247;-75
2023/11/14 03:37:50;;;;;;;12.83;3.30;;;27.40;56.40;;;;;;4936210;29;20207;-77
2023/11/14 03:40:17;;;;;;;14.13;3.00;;;27.30;57.00;;;;;;4935674;29;20208;-76
2023/11/14 03:42:45;;;;;;;15.23;3.77;;;27.30;56.80;;;;;;4934299;29;20251;-75
2023/11/14 03:45:12;;;;;;;15.40;4.07;;;27.50;56.20;;;;;;4935232;29;20278;-76
2023/11/14 03:47:39;;;;;;;15.63;3.40;;;27.50;56.70;;;;;;4933527;29;20245;-76
2023/11/14 03:50:07;;;;;;;14.90;3.57;;;27.60;56.80;;;;;;4930957;29;20192;-72
2023/11/14 03:52:36;;;;;;;15.33;3.97;;;27.80;56.40;;;;;;4930176;29;20194;-77
2023/11/14 03:55:04;;;;;;;18.80;3.87;;;27.60;56.40;;;;;;4933822;29;20180;-74
2023/11/14 03:57:31;;;;;;;16.70;3.27;;;26.90;59.00;;;;;;4933573;29;20207;-76
2023/11/14 03:59:59;;;;;;;13.23;3.00;;;27.30;58.00;;;;;;4932992;29;20262;-75
2023/11/14 04:02:26;;;;;;;17.50;3.60;;;27.50;56.60;;;;;;4933278;29;20578;-76
2023/11/14 04:04:53;;;;;;;13.70;3.20;;;27.80;56.10;;;;;;4932107;29;20187;-77
2023/11/14 04:07:21;;;;;;;17.13;3.97;;;28.00;55.30;;;;;;4934017;29;20238;-80
2023/11/14 04:09:49;;;;;;;13.33;3.27;;;28.10;55.20;;;;;;4935099;29;20180;-76
2023/11/14 04:12:16;;;;;;;11.80;3.23;;;27.60;55.70;;;;;;4934680;29;20176;-75
2023/11/14 04:14:44;;;;;;;13.07;3.40;;;27.00;57.30;;;;;;4935761;29;20199;-75
2023/11/14 04:17:11;;;;;;;12.60;2.73;;;27.00;58.20;;;;;;4934117;29;20188;-75
2023/11/14 04:19:38;;;;;;;12.17;2.20;;;27.00;57.40;;;;;;4932701;29;20275;-76
2023/11/14 04:22:06;;;;;;;12.83;2.77;;;26.90;58.10;;;;;;4934057;29;20247;-74
2023/11/14 04:24:34;;;;;;;12.23;2.93;;;26.70;57.80;;;;;;4930357;29;20200;-73
2023/11/14 04:27:02;;;;;;;12.90;2.50;;;26.60;58.60;;;;;;4934002;29;20564;-72
2023/11/14 04:29:29;;;;;;;17.53;2.97;;;26.60;58.50;;;;;;4934497;29;20228;-73
2023/11/14 04:31:57;;;;;;;11.77;2.90;;;26.60;58.80;;;;;;4933814;29;20230;-73
2023/11/14 04:34:26;;;;;;;12.53;2.90;;;27.00;58.60;;;;;;4933947;29;20188;-74
2023/11/14 04:36:53;;;;;;;14.30;3.03;;;27.60;56.00;;;;;;4933793;29;20618;-73
2023/11/14 04:39:21;;;;;;;17.20;3.20;;;27.40;56.80;;;;;;4933675;29;20207;-72
2023/11/14 04:41:48;;;;;;;12.13;2.77;;;27.90;55.20;;;;;;4933494;29;20192;-73
2023/11/14 04:44:15;;;;;;;12.93;3.27;;;27.70;55.50;;;;;;4931655;29;20184;-72
2023/11/14 04:46:46;;;;;;;6.77;1.80;;;27.90;55.40;;;;;;4935246;29;20263;-75
2023/11/14 04:49:13;;;;;;;10.83;2.40;;;28.10;54.20;;;;;;4933801;29;20196;-79
2023/11/14 04:51:42;;;;;;;10.77;2.23;;;27.40;55.10;;;;;;4933821;29;20199;-73
2023/11/14 04:54:10;;;;;;;8.80;2.80;;;27.50;55.70;;;;;;4935109;29;20176;-75
2023/11/14 04:56:37;;;;;;;12.30;3.00;;;28.20;54.30;;;;;;4933129;29;20187;-74
2023/11/14 04:59:05;;;;;;;15.63;3.00;;;28.10;54.00;;;;;;4935203;29;20184;-71
2023/11/14 05:01:32;;;;;;;14.67;2.53;;;28.30;53.40;;;;;;4937873;29;20599;-72
2023/11/14 05:03:59;;;;;;;11.27;2.67;;;28.30;53.40;;;;;;4932230;29;20196;-73
2023/11/14 05:06:27;;;;;;;9.03;2.50;;;28.20;53.10;;;;;;4934590;29;20199;-74
2023/11/14 05:08:55;;;;;;;8.57;2.60;;;27.90;53.80;;;;;;4932577;29;20602;-74
2023/11/14 05:11:22;;;;;;;14.83;2.93;;;27.40;55.10;;;;;;4933088;29;20594;-73
2023/11/14 05:13:49;;;;;;;11.60;2.97;;;26.60;58.00;;;;;;4929516;29;20986;-73
2023/11/14 05:16:17;;;;;;;9.97;3.17;;;26.10;59.00;;;;;;4934932;29;20183;-74
2023/11/14 05:18:45;;;;;;;12.80;2.60;;;25.40;62.20;;;;;;4933406;29;20243;-73
2023/11/14 05:21:13;;;;;;;12.40;2.70;;;24.80;63.20;;;;;;4933031;29;20232;-73
2023/11/14 05:23:40;;;;;;;12.53;2.80;;;24.30;64.70;;;;;;4934182;29;20584;-77
2023/11/14 05:26:07;;;;;;;14.87;2.90;;;24.10;65.60;;;;;;4931788;29;20227;-74
2023/11/14 05:28:38;;;;;;;15.50;2.70;;;23.90;67.40;;;;;;4930358;29;20711;-78
2023/11/14 05:31:05;;;;;;;18.70;3.93;;;23.80;67.60;;;;;;4936477;29;20674;-73
2023/11/14 05:33:33;;;;;;;16.00;3.53;;;23.80;68.80;;;;;;4934727;29;20215;-73
2023/11/14 05:36:00;;;;;;;15.80;3.33;;;23.80;68.70;;;;;;4934721;29;20192;-74
2023/11/14 05:38:27;;;;;;;14.90;3.57;;;23.80;68.80;;;;;;4935335;29;20195;-72
2023/11/14 05:40:56;;;;;;;19.63;3.20;;;23.90;68.60;;;;;;4936858;29;20235;-73
2023/11/14 05:43:28;;;;;;;13.37;3.77;;;23.60;69.60;;;;;;4932249;29;20191;-75
2023/11/14 05:45:56;;;;;;;13.07;3.47;;;23.60;70.10;;;;;;4941967;29;20188;-73
2023/11/14 05:48:24;;;;;;;12.20;2.83;;;23.60;69.60;;;;;;4935609;29;20196;-73
2023/11/14 05:50:51;;;;;;;15.60;3.93;;;23.50;70.40;;;;;;4938375;29;20192;-73
2023/11/14 05:53:19;;;;;;;16.70;3.17;;;23.30;71.10;;;;;;4935267;29;20192;-73
2023/11/14 05:55:46;;;;;;;17.93;3.83;;;23.30;72.20;;;;;;4933697;29;20579;-74
2023/11/14 05:58:13;;;;;;;19.03;3.20;;;23.20;72.80;;;;;;4923904;29;20278;-74
2023/11/14 06:00:41;;;;;;;25.23;3.60;;;23.10;72.90;;;;;;4919068;29;20706;-73
2023/11/14 06:03:08;;;;;;;16.03;3.70;;;23.10;73.30;;;;;;4934941;29;20196;-75
2023/11/14 06:05:35;;;;;;;18.43;3.67;;;23.20;73.30;;;;;;4933082;29;20274;-72
2023/11/14 06:08:03;;;;;;;17.20;4.03;;;23.30;72.90;;;;;;4935166;29;20180;-73
2023/11/14 06:10:31;;;;;;;18.77;3.63;;;23.30;73.10;;;;;;4934286;29;20196;-74
2023/11/14 06:12:58;;;;;;;19.47;3.87;;;23.30;72.40;;;;;;4938221;29;20655;-72
2023/11/14 06:15:26;;;;;;;17.20;3.87;;;23.30;73.00;;;;;;4936463;29;20218;-72
2023/11/14 06:17:54;;;;;;;15.33;3.30;;;23.40;72.70;;;;;;4934973;29;20188;-72
2023/11/14 06:20:24;;;;;;;18.83;3.83;;;23.40;72.30;;;;;;4928064;29;20243;-76
2023/11/14 06:22:52;;;;;;;15.43;3.20;;;23.30;72.40;;;;;;4930620;29;20197;-73
2023/11/14 06:25:19;;;;;;;20.80;3.50;;;23.20;73.20;;;;;;4933409;29;20220;-73
2023/11/14 06:27:47;;;;;;;20.53;3.63;;;23.30;73.50;;;;;;4927798;29;20584;-71
2023/11/14 06:30:14;;;;;;;16.37;3.27;;;23.30;73.50;;;;;;4932815;29;20294;-74
2023/11/14 06:32:42;;;;;;;13.80;3.33;;;23.30;73.30;;;;;;4934863;29;20604;-73
2023/11/14 06:35:10;;;;;;;15.90;2.93;;;23.30;73.70;;;;;;4935548;29;20188;-73
2023/11/14 06:37:38;;;;;;;23.67;4.63;;;23.10;73.60;;;;;;4933957;29;20192;-74
2023/11/14 06:40:07;;;;;;;18.40;3.70;;;23.00;74.20;;;;;;4928438;29;20564;-73
2023/11/14 06:42:35;;;;;;;19.83;3.90;;;23.00;74.80;;;;;;4932215;29;20278;-73
2023/11/14 06:45:02;;;;;;;19.40;3.97;;;22.80;75.10;;;;;;4934227;29;20199;-74
2023/11/14 06:47:29;;;;;;;15.10;4.00;;;22.80;74.80;;;;;;4932790;29;20279;-74
2023/11/14 06:49:57;;;;;;;19.10;3.73;;;22.80;75.30;;;;;;4932509;29;20651;-75
2023/11/14 06:52:24;;;;;;;21.53;3.87;;;22.50;76.20;;;;;;4930453;29;20330;-74
2023/11/14 06:54:51;;;;;;;16.83;4.27;;;22.60;76.40;;;;;;4935622;29;20216;-74
2023/11/14 06:57:20;;;;;;;18.83;4.23;;;22.60;76.50;;;;;;4934075;29;20188;-73
2023/11/14 06:59:48;;;;;;;21.50;4.97;;;22.70;76.60;;;;;;4933489;29;20693;-74
2023/11/14 07:02:16;;;;;;;20.73;4.17;;;22.80;76.10;;;;;;4934359;29;20187;-74
2023/11/14 07:04:43;;;;;;;16.60;3.70;;;22.70;76.20;;;;;;4932367;29;20241;-75
2023/11/14 07:07:10;;;;;;;13.03;4.00;;;22.70;76.20;;;;;;4932939;29;20184;-74
2023/11/14 07:09:38;;;;;;;13.33;3.07;;;22.70;76.40;;;;;;4934144;29;20616;-74
2023/11/14 07:12:05;;;;;;;22.20;4.40;;;22.50;76.40;;;;;;4935162;29;20666;-74
2023/11/14 07:14:32;;;;;;;17.50;4.03;;;22.50;76.60;;;;;;4935430;29;20184;-74
2023/11/14 07:17:00;;;;;;;22.73;4.23;;;22.60;76.40;;;;;;4933835;29;20309;-74
2023/11/14 07:19:27;;;;;;;21.10;3.93;;;22.60;76.80;;;;;;4935394;29;20227;-74
2023/11/14 07:21:55;;;;;;;21.37;3.73;;;22.70;76.80;;;;;;4931812;29;20716;-74
2023/11/14 07:24:22;;;;;;;19.13;3.63;;;22.80;76.50;;;;;;4936459;29;20674;-74
2023/11/14 07:26:50;;;;;;;25.17;4.23;;;22.80;76.50;;;;;;4935478;29;20180;-75
2023/11/14 07:29:19;;;;;;;22.00;4.30;;;22.70;76.30;;;;;;4936031;29;20231;-75
2023/11/14 07:31:46;;;;;;;15.50;4.07;;;22.60;76.20;;;;;;4935498;29;20199;-74
2023/11/14 07:34:14;;;;;;;15.50;3.30;;;22.60;76.70;;;;;;4928497;29;20212;-75
2023/11/14 07:36:41;;;;;;;20.37;4.63;;;22.50;76.80;;;;;;4934865;29;20258;-75
2023/11/14 07:39:09;;;;;;;14.50;4.10;;;22.50;77.00;;;;;;4936060;29;20272;-74
2023/11/14 07:41:37;;;;;;;17.83;4.07;;;22.50;76.90;;;;;;4929954;29;20199;-76
2023/11/14 07:44:06;;;;;;;17.63;3.87;;;22.30;77.00;;;;;;4935741;29;20203;-76
2023/11/14 07:46:33;;;;;;;28.17;4.20;;;22.20;77.60;;;;;;4935593;29;20283;-75
2023/11/14 07:49:01;;;;;;;17.70;3.63;;;22.10;78.10;;;;;;4932660;29;20239;-81
2023/11/14 07:51:28;;;;;;;14.37;3.60;;;22.00;78.30;;;;;;4931386;29;20218;-76
2023/11/14 07:53:55;;;;;;;21.80;4.60;;;22.00;78.50;;;;;;4935238;29;20247;-77
2023/11/14 07:56:24;;;;;;;18.83;3.43;;;21.90;78.80;;;;;;4934458;29;20183;-75
2023/11/14 07:58:51;;;;;;;18.03;3.90;;;21.80;79.10;;;;;;4934550;29;20544;-75
2023/11/14 08:01:19;;;;;;;20.10;3.70;;;21.80;78.90;;;;;;4935758;29;20200;-76
2023/11/14 08:03:49;;;;;;;17.00;3.80;;;21.80;79.10;;;;;;4933662;29;20737;-76
2023/11/14 08:06:17;;;;;;;22.50;3.70;;;21.80;79.10;;;;;;4931093;29;20195;-75
2023/11/14 08:08:46;;;;;;;13.00;3.17;;;21.80;79.10;;;;;;4931626;29;20179;-75
2023/11/14 08:11:13;;;;;;;16.90;3.40;;;21.80;78.90;;;;;;4930459;29;20622;-74
2023/11/14 08:13:41;;;;;;;18.57;4.00;;;21.80;78.90;;;;;;4927791;29;20199;-75
2023/11/14 08:16:09;;;;;;;16.83;3.37;;;21.80;79.20;;;;;;4930684;29;20231;-73
2023/11/14 08:18:36;;;;;;;14.07;3.73;;;21.90;79.10;;;;;;4932517;29;20250;-74
2023/11/14 08:21:03;;;;;;;20.37;3.83;;;21.90;78.80;;;;;;4935053;29;20290;-73
2023/11/14 08:23:31;;;;;;;13.93;4.07;;;21.90;78.60;;;;;;4919538;29;20648;-73
2023/11/14 08:25:58;;;;;;;12.60;3.57;;;21.80;78.70;;;;;;4924632;29;20235;-74
2023/11/14 08:28:25;;;;;;;16.73;3.77;;;21.90;78.80;;;;;;4928411;29;20228;-73
2023/11/14 08:30:53;;;;;;;16.87;3.23;;;21.90;78.90;;;;;;4938349;29;20222;-75
2023/11/14 08:33:20;;;;;;;19.70;4.00;;;21.90;78.80;;;;;;4932720;29;20188;-73
2023/11/14 08:35:48;;;;;;;23.87;3.93;;;21.90;78.80;;;;;;4932055;29;20595;-75
2023/11/14 08:38:15;;;;;;;14.47;3.67;;;21.90;79.10;;;;;;4930846;29;20183;-74
2023/11/14 08:40:43;;;;;;;19.23;4.03;;;21.90;79.20;;;;;;4925082;29;20686;-73
2023/11/14 08:43:10;;;;;;;21.20;3.87;;;21.90;79.10;;;;;;4934362;29;20697;-75
2023/11/14 08:45:38;;;;;;;21.60;3.70;;;21.90;79.30;;;;;;4934536;29;20246;-75
2023/11/14 08:48:07;;;;;;;20.90;4.60;;;21.90;79.50;;;;;;4935148;29;20183;-73
2023/11/14 08:50:39;;;;;;;25.07;4.50;;;21.90;79.30;;;;;;4935472;29;20195;-74
2023/11/14 08:53:06;;;;;;;13.40;3.17;;;21.80;79.40;;;;;;4934145;29;20187;-75
2023/11/14 08:55:33;;;;;;;19.23;3.70;;;21.80;79.30;;;;;;4934286;29;20199;-74
2023/11/14 08:58:01;;;;;;;19.63;4.20;;;21.80;79.70;;;;;;4935003;29;20177;-74
2023/11/14 09:00:30;;;;;;;23.33;4.07;;;21.80;79.40;;;;;;4934284;29;20216;-74
2023/11/14 09:02:58;;;;;;;17.93;3.50;;;21.80;79.40;;;;;;4935289;29;20267;-74
2023/11/14 09:05:27;;;;;;;18.97;3.90;;;21.80;79.60;;;;;;4936880;29;20196;-74
2023/11/14 09:07:55;;;;;;;23.17;4.33;;;21.80;79.30;;;;;;4936171;29;20275;-73
2023/11/14 09:10:23;;;;;;;19.20;4.37;;;21.80;79.50;;;;;;4935278;29;20203;-73
2023/11/14 09:12:51;;;;;;;16.40;4.00;;;21.80;79.30;;;;;;4935924;29;20195;-76
2023/11/14 09:15:20;;;;;;;16.93;4.07;;;21.80;79.50;;;;;;4936104;29;20202;-76
2023/11/14 09:17:48;;;;;;;21.17;4.50;;;21.80;79.40;;;;;;4938601;29;20219;-75
2023/11/14 09:20:16;;;;;;;22.00;4.60;;;21.80;79.50;;;;;;4937940;29;20298;-75
2023/11/14 09:22:44;;;;;;;25.57;4.20;;;21.80;79.60;;;;;;4937630;29;20218;-75
2023/11/14 09:25:11;;;;;;;19.27;3.97;;;21.80;79.60;;;;;;4937747;29;20187;-74
2023/11/14 09:27:39;;;;;;;20.70;4.13;;;21.80;79.50;;;;;;4937323;29;20214;-75
2023/11/14 09:30:08;;;;;;;18.83;4.63;;;21.80;79.70;;;;;;4937802;29;20192;-75
2023/11/14 09:32:35;;;;;;;21.90;4.30;;;21.80;79.80;;;;;;4936539;29;20702;-74
2023/11/14 09:35:03;;;;;;;21.23;4.93;;;21.80;79.70;;;;;;4938550;29;20219;-75
2023/11/14 09:37:30;;;;;;;23.13;4.53;;;21.80;79.80;;;;;;4922138;29;20226;-74
2023/11/14 09:39:57;;;;;;;19.77;4.03;;;21.80;79.60;;;;;;4937215;29;20208;-74
2023/11/14 09:42:26;;;;;;;23.60;4.50;;;21.70;80.00;;;;;;4935341;29;20294;-74
2023/11/14 09:44:53;;;;;;;21.97;3.77;;;21.80;80.20;;;;;;4937016;29;20180;-74
2023/11/14 09:47:20;;;;;;;22.77;4.37;;;21.80;80.30;;;;;;4936807;29;20183;-74
2023/11/14 09:49:49;;;;;;;17.80;3.90;;;21.80;80.40;;;;;;4937031;29;20188;-74
2023/11/14 09:52:16;;;;;;;19.67;4.23;;;21.80;81.00;;;;;;4932741;29;20643;-74
2023/11/14 09:54:44;;;;;;;18.50;4.40;;;21.80;81.10;;;;;;4934988;29;21733;-74
2023/11/14 09:57:12;;;;;;;24.10;4.27;;;21.70;81.50;;;;;;4936875;29;20270;-74
2023/11/14 09:59:43;;;;;;;18.20;4.20;;;21.70;81.50;;;;;;4935976;29;20224;-75
2023/11/14 10:02:11;;;;;;;23.70;4.20;;;21.60;81.40;;;;;;4936658;29;20294;-74
2023/11/14 10:04:40;;;;;;;22.43;4.60;;;21.50;81.20;;;;;;4938101;29;20199;-74
2023/11/14 10:07:10;;;;;;;23.67;3.93;;;21.50;81.30;;;;;;4935911;29;20184;-74
2023/11/14 10:09:42;;;;;;;17.20;4.10;;;21.50;81.40;;;;;;4936921;29;20185;-74
2023/11/14 10:12:10;;;;;;;20.73;4.10;;;21.50;81.40;;;;;;4929931;29;20259;-75
2023/11/14 10:14:46;;;;;;;21.00;4.10;;;21.60;81.30;;;;;;4937290;29;20188;-75
2023/11/14 10:17:17;;;;;;;24.33;4.27;;;21.60;81.20;;;;;;4935987;29;20187;-75
2023/11/14 10:20:01;;;;;;;22.93;4.53;;;21.60;81.30;;;;;;4936988;29;20239;-75
2023/11/14 10:22:29;;;;;;;19.73;3.87;;;21.50;81.20;;;;;;4936855;29;20396;-76
2023/11/14 10:24:57;;;;;;;18.00;3.80;;;21.50;81.40;;;;;;4936363;29;20184;-75
2023/11/14 10:27:36;;;;;;;25.53;4.50;;;21.50;81.30;;;;;;4937470;29;20230;-75
2023/11/14 10:30:04;;;;;;;18.83;3.93;;;21.50;81.40;;;;;;4931364;29;20184;-75
2023/11/14 10:32:32;;;;;;;21.70;3.70;;;21.50;81.60;;;;;;4936595;29;20195;-74
2023/11/14 10:35:18;;;;;;;18.23;3.97;;;21.50;81.50;;;;;;4934923;29;20196;-74
2023/11/14 10:37:46;;;;;;;18.60;4.30;;;21.50;81.70;;;;;;4932755;29;20651;-74
2023/11/14 10:40:15;;;;;;;18.47;4.27;;;21.40;81.90;;;;;;4935826;29;20617;-75
2023/11/14 10:42:54;;;;;;;26.33;4.63;;;21.40;82.20;;;;;;4936691;29;20183;-73
2023/11/14 10:45:21;;;;;;;15.77;3.60;;;21.40;82.00;;;;;;4934193;29;20216;-74
2023/11/14 10:47:49;;;;;;;25.30;4.20;;;21.30;82.30;;;;;;4933215;29;20192;-74
2023/11/14 10:50:28;;;;;;;16.87;3.27;;;21.30;82.40;;;;;;4933998;29;20222;-74
2023/11/14 10:52:56;;;;;;;22.17;4.30;;;21.30;82.50;;;;;;4934497;29;20184;-74
2023/11/14 10:55:25;;;;;;;26.57;4.37;;;21.30;82.60;;;;;;4935236;29;20569;-73
2023/11/14 10:57:54;;;;;;;22.50;4.53;;;21.30;82.70;;;;;;4936453;29;20190;-74
2023/11/14 11:00:22;;;;;;;26.43;4.43;;;21.30;82.70;;;;;;4932632;29;20690;-74
2023/11/14 11:02:53;;;;;;;19.13;3.87;;;21.20;82.60;;;;;;4931902;29;20176;-75
2023/11/14 11:05:27;;;;;;;23.47;3.97;;;21.20;82.60;;;;;;4932891;29;20192;-75
2023/11/14 11:07:55;;;;;;;27.83;4.70;;;21.20;82.60;;;;;;4932943;29;20638;-74
2023/11/14 11:10:23;;;;;;;23.23;4.13;;;21.20;82.60;;;;;;4929404;29;20222;-74
2023/11/14 11:12:51;;;;;;;18.83;4.23;;;21.20;82.90;;;;;;4927175;29;20263;-74
2023/11/14 11:15:18;;;;;;;24.67;4.43;;;21.20;82.80;;;;;;4933261;29;20184;-73
2023/11/14 11:17:46;;;;;;;18.77;4.17;;;21.20;82.80;;;;;;4938384;29;20188;-73
2023/11/14 11:20:25;;;;;;;26.27;4.07;;;21.20;82.90;;;;;;4927894;29;20228;-73
2023/11/14 11:23:03;;;;;;;20.83;4.17;;;21.20;82.60;;;;;;4928713;29;20637;-73
2023/11/14 11:25:32;;;;;;;21.40;4.03;;;21.20;82.50;;;;;;4933069;29;20235;-74
2023/11/14 11:28:22;;;;;;;21.37;3.93;;;21.20;82.20;;;;;;4934405;29;20639;-74
2023/11/14 11:31:14;;;;;;;18.93;3.90;;;21.30;82.30;;;;;;4933392;29;20243;-74
2023/11/14 11:33:43;;;;;;;22.70;4.20;;;21.20;82.10;;;;;;4935358;29;20191;-75
2023/11/14 11:36:32;;;;;;;22.60;4.30;;;21.20;82.20;;;;;;4934228;29;20178;-74
2023/11/14 11:39:07;;;;;;;24.30;4.47;;;21.20;82.10;;;;;;4935944;29;20222;-74
2023/11/14 11:42:00;;;;;;;19.90;3.50;;;21.20;82.00;;;;;;4934301;29;20581;-73
2023/11/14 11:44:37;;;;;;;22.03;4.10;;;21.20;82.10;;;;;;4934373;29;20184;-75
2023/11/14 11:47:05;;;;;;;18.40;3.67;;;21.20;82.20;;;;;;4934476;29;20270;-74
2023/11/14 11:49:33;;;;;;;21.23;4.30;;;21.20;82.30;;;;;;4935357;29;20184;-74
2023/11/14 11:52:12;;;;;;;22.80;4.00;;;21.20;82.20;;;;;;4934997;29;20184;-75
2023/11/14 11:54:40;;;;;;;24.33;4.23;;;21.10;82.30;;;;;;4918619;29;20547;-75
2023/11/14 11:57:11;;;;;;;21.77;4.17;;;21.10;82.40;;;;;;4934727;29;20274;-74
2023/11/14 11:59:44;;;;;;;22.10;4.03;;;21.10;82.40;;;;;;4928200;29;20290;-75
2023/11/14 12:02:13;;;;;;;22.03;4.40;;;21.20;82.40;;;;;;4935541;29;20543;-76
2023/11/14 12:04:43;;;;;;;21.53;4.37;;;21.20;82.40;;;;;;4921658;29;20220;-79
2023/11/14 12:07:11;;;;;;;18.37;4.40;;;21.20;82.60;;;;;;4935797;29;20662;-81
2023/11/14 12:09:56;;;;;;;26.63;4.27;;;21.10;82.40;;;;;;4934312;29;20227;-75
2023/11/14 12:12:24;;;;;;;15.03;3.57;;;21.10;82.40;;;;;;4918350;29;20215;-78
2023/11/14 12:14:52;;;;;;;16.07;3.67;;;21.10;82.40;;;;;;4935439;29;20191;-75
2023/11/14 12:17:19;;;;;;;23.33;3.97;;;21.10;82.50;;;;;;4935584;29;20179;-77
2023/11/14 12:19:47;;;;;;;21.47;4.20;;;21.10;82.60;;;;;;4933848;29;20579;-75
2023/11/14 12:22:14;;;;;;;25.97;4.97;;;21.10;82.60;;;;;;4931558;29;20626;-75
2023/11/14 12:24:43;;;;;;;24.53;4.03;;;21.10;82.50;;;;;;4934027;29;20184;-80
2023/11/14 12:27:11;;;;;;;22.03;3.80;;;21.10;82.40;;;;;;4934251;29;20665;-77
2023/11/14 12:29:38;;;;;;;23.67;4.53;;;21.10;82.50;;;;;;4928496;29;20258;-75
2023/11/14 12:32:12;;;;;;;17.17;3.80;;;21.10;82.70;;;;;;4918111;29;20203;-77
2023/11/14 12:34:40;;;;;;;18.90;4.00;;;21.10;82.70;;;;;;4932994;29;20188;-75
2023/11/14 12:37:08;;;;;;;15.30;3.47;;;21.10;82.80;;;;;;4928853;29;20206;-78
2023/11/14 12:39:35;;;;;;;28.73;4.37;;;21.00;82.90;;;;;;4904980;29;20214;-76
2023/11/14 12:42:04;;;;;;;20.73;3.93;;;21.00;83.00;;;;;;4939712;29;20245;-75
2023/11/14 12:44:34;;;;;;;24.00;4.27;;;21.00;83.10;;;;;;4936923;29;20187;-76
2023/11/14 12:47:01;;;;;;;23.33;4.33;;;21.00;83.20;;;;;;4935554;29;20196;-77